KSAN/SAN METAR and TAF weather

Enter ICAO airport designator
Station Type Date Time Source
KSAN METAR 2022/01/25 05:51 UTC NOAA

KSAN 250551Z 00000KT 10SM BKN008 15/13 A3004 RMK AO2 SLP171 T01500133 10172 20144 50000


Station Type Date Time Source
KSAN Decoded METAR 2022/01/25 05:51 UTC NOAA

SAN DIEGO INTERNATIONAL \LINDBERGH FLD, CA, United States (KSAN) 32-44N 117-11W 12M
Jan 25, 2022 - 12:51 AM EST / 2022.01.25 0551 UTC
Wind: Calm:0
Visibility: 10 mile(s):0
Sky conditions: mostly cloudy
Temperature: 59.0 F (15.0 C)
Dew Point: 55.9 F (13.3 C)
Relative Humidity: 89%
Pressure (altimeter): 30.04 in. Hg (1017 hPa)
Pressure tendency: 0.00 inches (0.0 hPa) higher than three hours ago
ob: KSAN 250551Z 00000KT 10SM BKN008 15/13 A3004 RMK AO2 SLP171 T01500133 10172 20144 50000
cycle: 6

Station Type Date Time Source
KSAN TAF 2022/01/25 06:36 UTC NOAA

TAF KSAN 250534Z 2506/2612 VRB03KT P6SM BKN009
FM251200 16004KT P6SM BKN010
FM251700 14005KT P6SM SCT010
FM252000 23008KT P6SM FEW010 SCT250
FM260200 VRB03KT P6SM FEW008 SCT250

Example: see airport list